sensor_id;sensor_type;location;lat;lon;timestamp;P1;durP1;ratioP1;P2;durP2;ratioP2
78368;SDS011;71113;43.092;-89.268;2023-08-30T00:00:57;2.17;;;1.23;;
78368;SDS011;71113;43.092;-89.268;2023-08-30T00:03:22;1.33;;;0.90;;
78368;SDS011;71113;43.092;-89.268;2023-08-30T00:05:48;5.28;;;1.23;;
78368;SDS011;71113;43.092;-89.268;2023-08-30T00:08:14;5.32;;;1.38;;
78368;SDS011;71113;43.092;-89.268;2023-08-30T00:10:47;2.03;;;1.23;;
78368;SDS011;71113;43.092;-89.268;2023-08-30T00:13:13;2.72;;;1.17;;
78368;SDS011;71113;43.092;-89.268;2023-08-30T00:15:39;3.25;;;1.20;;
78368;SDS011;71113;43.092;-89.268;2023-08-30T00:18:06;4.30;;;1.20;;
78368;SDS011;71113;43.092;-89.268;2023-08-30T00:20:32;4.40;;;1.40;;
78368;SDS011;71113;43.092;-89.268;2023-08-30T00:22:58;2.13;;;1.30;;
78368;SDS011;71113;43.092;-89.268;2023-08-30T00:25:24;2.15;;;1.25;;
78368;SDS011;71113;43.092;-89.268;2023-08-30T00:27:50;3.00;;;1.50;;
78368;SDS011;71113;43.092;-89.268;2023-08-30T00:30:16;2.95;;;1.13;;
78368;SDS011;71113;43.092;-89.268;2023-08-30T00:32:42;3.85;;;1.40;;
78368;SDS011;71113;43.092;-89.268;2023-08-30T00:35:09;2.15;;;1.20;;
78368;SDS011;71113;43.092;-89.268;2023-08-30T00:37:35;2.13;;;1.10;;
78368;SDS011;71113;43.092;-89.268;2023-08-30T00:40:01;2.10;;;1.10;;
78368;SDS011;71113;43.092;-89.268;2023-08-30T00:42:28;1.80;;;1.20;;
78368;SDS011;71113;43.092;-89.268;2023-08-30T00:45:03;2.00;;;1.10;;
78368;SDS011;71113;43.092;-89.268;2023-08-30T00:47:36;1.75;;;0.82;;
78368;SDS011;71113;43.092;-89.268;2023-08-30T00:50:02;2.13;;;1.27;;
78368;SDS011;71113;43.092;-89.268;2023-08-30T00:52:29;4.55;;;1.30;;
78368;SDS011;71113;43.092;-89.268;2023-08-30T00:54:55;1.75;;;1.00;;
78368;SDS011;71113;43.092;-89.268;2023-08-30T00:57:21;2.80;;;0.98;;
78368;SDS011;71113;43.092;-89.268;2023-08-30T00:59:47;3.63;;;1.23;;
78368;SDS011;71113;43.092;-89.268;2023-08-30T01:02:15;2.55;;;1.20;;
78368;SDS011;71113;43.092;-89.268;2023-08-30T01:04:41;3.58;;;1.02;;
78368;SDS011;71113;43.092;-89.268;2023-08-30T01:07:07;2.83;;;1.10;;
78368;SDS011;71113;43.092;-89.268;2023-08-30T01:09:33;1.55;;;1.05;;
78368;SDS011;71113;43.092;-89.268;2023-08-30T01:15:06;2.08;;;1.05;;
78368;SDS011;71113;43.092;-89.268;2023-08-30T01:17:36;1.98;;;1.15;;
78368;SDS011;71113;43.092;-89.268;2023-08-30T01:20:05;2.40;;;1.30;;
78368;SDS011;71113;43.092;-89.268;2023-08-30T01:23:01;1.80;;;1.10;;
78368;SDS011;71113;43.092;-89.268;2023-08-30T01:25:32;4.40;;;1.20;;
78368;SDS011;71113;43.092;-89.268;2023-08-30T01:28:11;1.73;;;1.00;;
78368;SDS011;71113;43.092;-89.268;2023-08-30T01:30:40;2.72;;;1.10;;
78368;SDS011;71113;43.092;-89.268;2023-08-30T01:33:07;1.55;;;1.05;;
78368;SDS011;71113;43.092;-89.268;2023-08-30T01:35:34;2.40;;;1.13;;
78368;SDS011;71113;43.092;-89.268;2023-08-30T01:38:05;1.20;;;0.80;;
78368;SDS011;71113;43.092;-89.268;2023-08-30T01:40:35;2.08;;;1.17;;
78368;SDS011;71113;43.092;-89.268;2023-08-30T01:43:04;1.63;;;1.20;;
78368;SDS011;71113;43.092;-89.268;2023-08-30T01:45:32;1.70;;;1.00;;
78368;SDS011;71113;43.092;-89.268;2023-08-30T01:48:00;1.45;;;0.90;;
78368;SDS011;71113;43.092;-89.268;2023-08-30T01:50:27;1.48;;;0.93;;
78368;SDS011;71113;43.092;-89.268;2023-08-30T01:52:54;2.85;;;1.00;;
78368;SDS011;71113;43.092;-89.268;2023-08-30T01:55:21;1.70;;;1.05;;
78368;SDS011;71113;43.092;-89.268;2023-08-30T01:57:48;2.00;;;1.05;;
78368;SDS011;71113;43.092;-89.268;2023-08-30T02:00:14;1.92;;;1.00;;
78368;SDS011;71113;43.092;-89.268;2023-08-30T02:02:40;2.10;;;1.02;;
78368;SDS011;71113;43.092;-89.268;2023-08-30T02:05:06;1.52;;;0.90;;
78368;SDS011;71113;43.092;-89.268;2023-08-30T02:10:17;3.25;;;0.90;;
78368;SDS011;71113;43.092;-89.268;2023-08-30T02:12:49;2.70;;;1.17;;
78368;SDS011;71113;43.092;-89.268;2023-08-30T02:15:20;2.25;;;1.10;;
78368;SDS011;71113;43.092;-89.268;2023-08-30T02:17:49;1.90;;;1.10;;
78368;SDS011;71113;43.092;-89.268;2023-08-30T02:20:15;1.48;;;0.90;;
78368;SDS011;71113;43.092;-89.268;2023-08-30T02:22:41;1.98;;;1.02;;
78368;SDS011;71113;43.092;-89.268;2023-08-30T02:25:08;1.58;;;0.90;;
78368;SDS011;71113;43.092;-89.268;2023-08-30T02:27:35;1.35;;;0.80;;
78368;SDS011;71113;43.092;-89.268;2023-08-30T02:30:01;1.08;;;0.60;;
78368;SDS011;71113;43.092;-89.268;2023-08-30T02:32:28;1.25;;;0.90;;
78368;SDS011;71113;43.092;-89.268;2023-08-30T02:34:55;1.88;;;1.10;;
78368;SDS011;71113;43.092;-89.268;2023-08-30T02:37:21;1.20;;;0.80;;
78368;SDS011;71113;43.092;-89.268;2023-08-30T02:39:47;1.63;;;1.02;;
78368;SDS011;71113;43.092;-89.268;2023-08-30T02:42:13;1.40;;;1.00;;
78368;SDS011;71113;43.092;-89.268;2023-08-30T02:44:39;1.20;;;0.85;;
78368;SDS011;71113;43.092;-89.268;2023-08-30T02:47:05;1.98;;;0.93;;
78368;SDS011;71113;43.092;-89.268;2023-08-30T02:49:31;1.45;;;1.00;;
78368;SDS011;71113;43.092;-89.268;2023-08-30T02:51:57;0.70;;;0.60;;
78368;SDS011;71113;43.092;-89.268;2023-08-30T02:54:23;1.27;;;0.80;;
78368;SDS011;71113;43.092;-89.268;2023-08-30T02:56:49;1.10;;;0.80;;
78368;SDS011;71113;43.092;-89.268;2023-08-30T02:59:15;1.27;;;0.93;;
78368;SDS011;71113;43.092;-89.268;2023-08-30T03:01:41;2.00;;;0.98;;
78368;SDS011;71113;43.092;-89.268;2023-08-30T03:04:07;1.25;;;0.80;;
78368;SDS011;71113;43.092;-89.268;2023-08-30T03:06:33;1.35;;;0.88;;
78368;SDS011;71113;43.092;-89.268;2023-08-30T03:09:00;0.98;;;0.70;;
78368;SDS011;71113;43.092;-89.268;2023-08-30T03:11:28;1.05;;;0.77;;
78368;SDS011;71113;43.092;-89.268;2023-08-30T03:13:54;0.88;;;0.60;;
78368;SDS011;71113;43.092;-89.268;2023-08-30T03:16:20;1.55;;;0.90;;
78368;SDS011;71113;43.092;-89.268;2023-08-30T03:18:46;1.00;;;0.50;;
78368;SDS011;71113;43.092;-89.268;2023-08-30T03:21:12;1.08;;;0.73;;
78368;SDS011;71113;43.092;-89.268;2023-08-30T03:23:39;1.60;;;0.90;;
78368;SDS011;71113;43.092;-89.268;2023-08-30T03:26:09;0.82;;;0.75;;
78368;SDS011;71113;43.092;-89.268;2023-08-30T03:28:40;1.17;;;0.65;;
78368;SDS011;71113;43.092;-89.268;2023-08-30T03:31:16;1.27;;;0.80;;
78368;SDS011;71113;43.092;-89.268;2023-08-30T03:33:47;0.65;;;0.63;;
78368;SDS011;71113;43.092;-89.268;2023-08-30T03:36:15;1.30;;;0.52;;
78368;SDS011;71113;43.092;-89.268;2023-08-30T03:38:42;0.82;;;0.70;;
78368;SDS011;71113;43.092;-89.268;2023-08-30T03:41:10;0.68;;;0.60;;
78368;SDS011;71113;43.092;-89.268;2023-08-30T03:43:36;1.25;;;0.73;;
78368;SDS011;71113;43.092;-89.268;2023-08-30T03:46:03;1.10;;;0.73;;
78368;SDS011;71113;43.092;-89.268;2023-08-30T03:48:29;1.73;;;0.80;;
78368;SDS011;71113;43.092;-89.268;2023-08-30T03:50:56;1.42;;;0.70;;
78368;SDS011;71113;43.092;-89.268;2023-08-30T03:53:22;0.90;;;0.73;;
78368;SDS011;71113;43.092;-89.268;2023-08-30T03:55:49;0.85;;;0.60;;
78368;SDS011;71113;43.092;-89.268;2023-08-30T03:58:16;0.68;;;0.52;;
78368;SDS011;71113;43.092;-89.268;2023-08-30T04:00:43;0.85;;;0.60;;
78368;SDS011;71113;43.092;-89.268;2023-08-30T04:03:09;0.60;;;0.50;;
78368;SDS011;71113;43.092;-89.268;2023-08-30T04:05:36;0.35;;;0.32;;
78368;SDS011;71113;43.092;-89.268;2023-08-30T04:08:03;0.95;;;0.60;;
78368;SDS011;71113;43.092;-89.268;2023-08-30T04:10:34;1.15;;;0.75;;
78368;SDS011;71113;43.092;-89.268;2023-08-30T04:13:01;0.50;;;0.50;;
78368;SDS011;71113;43.092;-89.268;2023-08-30T04:15:27;0.93;;;0.60;;
78368;SDS011;71113;43.092;-89.268;2023-08-30T04:17:53;1.13;;;0.70;;
78368;SDS011;71113;43.092;-89.268;2023-08-30T04:20:19;1.00;;;0.82;;
78368;SDS011;71113;43.092;-89.268;2023-08-30T04:22:45;0.77;;;0.57;;
78368;SDS011;71113;43.092;-89.268;2023-08-30T04:25:10;1.10;;;0.63;;
78368;SDS011;71113;43.092;-89.268;2023-08-30T04:27:37;2.00;;;0.55;;
78368;SDS011;71113;43.092;-89.268;2023-08-30T04:30:03;0.80;;;0.47;;
78368;SDS011;71113;43.092;-89.268;2023-08-30T04:32:29;0.68;;;0.50;;
78368;SDS011;71113;43.092;-89.268;2023-08-30T04:34:55;1.40;;;0.57;;
78368;SDS011;71113;43.092;-89.268;2023-08-30T04:37:20;0.98;;;0.80;;
78368;SDS011;71113;43.092;-89.268;2023-08-30T04:39:47;1.50;;;0.70;;
78368;SDS011;71113;43.092;-89.268;2023-08-30T04:42:14;1.08;;;0.70;;
78368;SDS011;71113;43.092;-89.268;2023-08-30T04:44:40;0.77;;;0.52;;
78368;SDS011;71113;43.092;-89.268;2023-08-30T04:47:06;0.65;;;0.55;;
78368;SDS011;71113;43.092;-89.268;2023-08-30T04:49:32;1.20;;;0.55;;
78368;SDS011;71113;43.092;-89.268;2023-08-30T04:51:58;0.80;;;0.50;;
78368;SDS011;71113;43.092;-89.268;2023-08-30T04:54:24;1.25;;;0.70;;
78368;SDS011;71113;43.092;-89.268;2023-08-30T04:56:49;0.82;;;0.50;;
78368;SDS011;71113;43.092;-89.268;2023-08-30T04:59:16;0.38;;;0.35;;
78368;SDS011;71113;43.092;-89.268;2023-08-30T05:01:42;0.75;;;0.68;;
78368;SDS011;71113;43.092;-89.268;2023-08-30T05:04:09;0.55;;;0.40;;
78368;SDS011;71113;43.092;-89.268;2023-08-30T05:06:55;0.70;;;0.57;;
78368;SDS011;71113;43.092;-89.268;2023-08-30T05:09:23;0.88;;;0.60;;
78368;SDS011;71113;43.092;-89.268;2023-08-30T05:11:53;1.83;;;0.98;;
78368;SDS011;71113;43.092;-89.268;2023-08-30T05:14:19;1.42;;;0.63;;
78368;SDS011;71113;43.092;-89.268;2023-08-30T05:16:45;0.80;;;0.57;;
78368;SDS011;71113;43.092;-89.268;2023-08-30T05:19:11;0.90;;;0.60;;
78368;SDS011;71113;43.092;-89.268;2023-08-30T05:21:37;0.52;;;0.50;;
78368;SDS011;71113;43.092;-89.268;2023-08-30T05:24:03;1.20;;;0.70;;
78368;SDS011;71113;43.092;-89.268;2023-08-30T05:26:32;1.77;;;0.60;;
78368;SDS011;71113;43.092;-89.268;2023-08-30T05:28:58;1.23;;;0.70;;
78368;SDS011;71113;43.092;-89.268;2023-08-30T05:31:24;0.50;;;0.40;;
78368;SDS011;71113;43.092;-89.268;2023-08-30T05:33:50;0.75;;;0.43;;
78368;SDS011;71113;43.092;-89.268;2023-08-30T05:36:16;0.50;;;0.50;;
78368;SDS011;71113;43.092;-89.268;2023-08-30T05:38:43;0.70;;;0.52;;
78368;SDS011;71113;43.092;-89.268;2023-08-30T05:41:09;0.68;;;0.55;;
78368;SDS011;71113;43.092;-89.268;2023-08-30T05:43:35;0.55;;;0.45;;
78368;SDS011;71113;43.092;-89.268;2023-08-30T05:46:01;0.90;;;0.73;;
78368;SDS011;71113;43.092;-89.268;2023-08-30T05:48:28;0.75;;;0.57;;
78368;SDS011;71113;43.092;-89.268;2023-08-30T05:50:54;0.82;;;0.65;;
78368;SDS011;71113;43.092;-89.268;2023-08-30T05:53:20;1.02;;;0.70;;
78368;SDS011;71113;43.092;-89.268;2023-08-30T05:55:46;0.47;;;0.43;;
78368;SDS011;71113;43.092;-89.268;2023-08-30T05:58:12;1.05;;;0.88;;
78368;SDS011;71113;43.092;-89.268;2023-08-30T06:00:40;0.82;;;0.68;;
78368;SDS011;71113;43.092;-89.268;2023-08-30T06:03:06;0.40;;;0.40;;
78368;SDS011;71113;43.092;-89.268;2023-08-30T06:05:33;0.50;;;0.50;;
78368;SDS011;71113;43.092;-89.268;2023-08-30T06:07:59;1.20;;;0.70;;
78368;SDS011;71113;43.092;-89.268;2023-08-30T06:10:26;0.50;;;0.50;;
78368;SDS011;71113;43.092;-89.268;2023-08-30T06:12:52;0.43;;;0.43;;
78368;SDS011;71113;43.092;-89.268;2023-08-30T06:15:18;0.63;;;0.60;;
78368;SDS011;71113;43.092;-89.268;2023-08-30T06:17:44;0.68;;;0.57;;
78368;SDS011;71113;43.092;-89.268;2023-08-30T06:20:11;0.95;;;0.60;;
78368;SDS011;71113;43.092;-89.268;2023-08-30T06:22:37;0.82;;;0.50;;
78368;SDS011;71113;43.092;-89.268;2023-08-30T06:25:05;0.80;;;0.60;;
78368;SDS011;71113;43.092;-89.268;2023-08-30T06:27:32;0.50;;;0.40;;
78368;SDS011;71113;43.092;-89.268;2023-08-30T06:29:58;1.02;;;0.70;;
78368;SDS011;71113;43.092;-89.268;2023-08-30T06:32:24;0.80;;;0.70;;
78368;SDS011;71113;43.092;-89.268;2023-08-30T06:34:50;0.40;;;0.32;;
78368;SDS011;71113;43.092;-89.268;2023-08-30T06:37:16;0.95;;;0.70;;
78368;SDS011;71113;43.092;-89.268;2023-08-30T06:39:42;0.50;;;0.50;;
78368;SDS011;71113;43.092;-89.268;2023-08-30T06:42:08;0.77;;;0.50;;
78368;SDS011;71113;43.092;-89.268;2023-08-30T06:44:34;0.50;;;0.50;;
78368;SDS011;71113;43.092;-89.268;2023-08-30T06:47:00;0.40;;;0.40;;
78368;SDS011;71113;43.092;-89.268;2023-08-30T06:49:26;0.57;;;0.52;;
78368;SDS011;71113;43.092;-89.268;2023-08-30T06:51:51;0.80;;;0.40;;
78368;SDS011;71113;43.092;-89.268;2023-08-30T06:54:17;0.55;;;0.52;;
78368;SDS011;71113;43.092;-89.268;2023-08-30T06:56:56;0.47;;;0.45;;
78368;SDS011;71113;43.092;-89.268;2023-08-30T06:59:28;0.68;;;0.52;;
78368;SDS011;71113;43.092;-89.268;2023-08-30T07:01:54;0.88;;;0.55;;
78368;SDS011;71113;43.092;-89.268;2023-08-30T07:04:20;1.80;;;0.60;;
78368;SDS011;71113;43.092;-89.268;2023-08-30T07:06:46;0.85;;;0.55;;
78368;SDS011;71113;43.092;-89.268;2023-08-30T07:09:12;0.55;;;0.40;;
78368;SDS011;71113;43.092;-89.268;2023-08-30T07:11:38;1.00;;;0.70;;
78368;SDS011;71113;43.092;-89.268;2023-08-30T07:14:04;0.52;;;0.43;;
78368;SDS011;71113;43.092;-89.268;2023-08-30T07:16:30;0.47;;;0.47;;
78368;SDS011;71113;43.092;-89.268;2023-08-30T07:18:57;1.23;;;0.80;;
78368;SDS011;71113;43.092;-89.268;2023-08-30T07:21:23;0.57;;;0.57;;
78368;SDS011;71113;43.092;-89.268;2023-08-30T07:23:49;0.47;;;0.32;;
78368;SDS011;71113;43.092;-89.268;2023-08-30T07:26:15;0.57;;;0.50;;
78368;SDS011;71113;43.092;-89.268;2023-08-30T07:28:41;0.60;;;0.60;;
78368;SDS011;71113;43.092;-89.268;2023-08-30T07:31:07;0.63;;;0.63;;
78368;SDS011;71113;43.092;-89.268;2023-08-30T07:33:33;0.65;;;0.20;;
78368;SDS011;71113;43.092;-89.268;2023-08-30T07:35:59;0.50;;;0.50;;
78368;SDS011;71113;43.092;-89.268;2023-08-30T07:38:25;0.57;;;0.57;;
78368;SDS011;71113;43.092;-89.268;2023-08-30T07:40:51;0.65;;;0.52;;
78368;SDS011;71113;43.092;-89.268;2023-08-30T07:43:17;0.40;;;0.40;;
78368;SDS011;71113;43.092;-89.268;2023-08-30T07:45:43;0.43;;;0.35;;
78368;SDS011;71113;43.092;-89.268;2023-08-30T07:48:09;0.32;;;0.30;;
78368;SDS011;71113;43.092;-89.268;2023-08-30T07:50:35;0.55;;;0.50;;
78368;SDS011;71113;43.092;-89.268;2023-08-30T07:53:01;0.80;;;0.50;;
78368;SDS011;71113;43.092;-89.268;2023-08-30T07:55:27;0.40;;;0.30;;
78368;SDS011;71113;43.092;-89.268;2023-08-30T07:57:53;0.68;;;0.40;;
78368;SDS011;71113;43.092;-89.268;2023-08-30T08:00:18;0.45;;;0.22;;
78368;SDS011;71113;43.092;-89.268;2023-08-30T08:02:44;0.40;;;0.40;;
78368;SDS011;71113;43.092;-89.268;2023-08-30T08:05:11;1.27;;;0.45;;
78368;SDS011;71113;43.092;-89.268;2023-08-30T08:07:38;0.82;;;0.43;;
78368;SDS011;71113;43.092;-89.268;2023-08-30T08:10:06;0.55;;;0.50;;
78368;SDS011;71113;43.092;-89.268;2023-08-30T08:12:32;0.60;;;0.43;;
78368;SDS011;71113;43.092;-89.268;2023-08-30T08:14:59;1.90;;;0.40;;
78368;SDS011;71113;43.092;-89.268;2023-08-30T08:17:25;1.85;;;0.98;;
78368;SDS011;71113;43.092;-89.268;2023-08-30T08:19:50;1.60;;;0.93;;
78368;SDS011;71113;43.092;-89.268;2023-08-30T08:22:16;1.52;;;0.88;;
78368;SDS011;71113;43.092;-89.268;2023-08-30T08:24:42;1.00;;;0.40;;
78368;SDS011;71113;43.092;-89.268;2023-08-30T08:27:11;0.35;;;0.35;;
78368;SDS011;71113;43.092;-89.268;2023-08-30T08:29:38;1.33;;;0.95;;
78368;SDS011;71113;43.092;-89.268;2023-08-30T08:32:03;0.30;;;0.30;;
78368;SDS011;71113;43.092;-89.268;2023-08-30T08:34:29;0.30;;;0.30;;
78368;SDS011;71113;43.092;-89.268;2023-08-30T08:36:55;0.43;;;0.43;;
78368;SDS011;71113;43.092;-89.268;2023-08-30T08:39:21;0.52;;;0.52;;
78368;SDS011;71113;43.092;-89.268;2023-08-30T08:41:47;0.50;;;0.47;;
78368;SDS011;71113;43.092;-89.268;2023-08-30T08:44:13;0.75;;;0.63;;
78368;SDS011;71113;43.092;-89.268;2023-08-30T08:46:40;0.28;;;0.28;;
78368;SDS011;71113;43.092;-89.268;2023-08-30T08:49:13;0.50;;;0.50;;
78368;SDS011;71113;43.092;-89.268;2023-08-30T08:51:40;0.30;;;0.20;;
78368;SDS011;71113;43.092;-89.268;2023-08-30T08:54:08;0.45;;;0.35;;
78368;SDS011;71113;43.092;-89.268;2023-08-30T08:56:35;0.32;;;0.32;;
78368;SDS011;71113;43.092;-89.268;2023-08-30T08:59:02;0.30;;;0.30;;
78368;SDS011;71113;43.092;-89.268;2023-08-30T09:01:29;0.30;;;0.30;;
78368;SDS011;71113;43.092;-89.268;2023-08-30T09:03:59;0.30;;;0.30;;
78368;SDS011;71113;43.092;-89.268;2023-08-30T09:06:25;0.50;;;0.50;;
78368;SDS011;71113;43.092;-89.268;2023-08-30T09:08:51;0.40;;;0.40;;
78368;SDS011;71113;43.092;-89.268;2023-08-30T09:11:17;0.38;;;0.38;;
78368;SDS011;71113;43.092;-89.268;2023-08-30T09:13:43;0.30;;;0.30;;
78368;SDS011;71113;43.092;-89.268;2023-08-30T09:16:13;0.22;;;0.22;;
78368;SDS011;71113;43.092;-89.268;2023-08-30T09:18:40;0.40;;;0.40;;
78368;SDS011;71113;43.092;-89.268;2023-08-30T09:21:07;0.30;;;0.30;;
78368;SDS011;71113;43.092;-89.268;2023-08-30T09:23:33;1.38;;;0.60;;
78368;SDS011;71113;43.092;-89.268;2023-08-30T09:26:00;0.68;;;0.50;;
78368;SDS011;71113;43.092;-89.268;2023-08-30T09:28:26;0.40;;;0.40;;
78368;SDS011;71113;43.092;-89.268;2023-08-30T09:30:52;0.20;;;0.20;;
78368;SDS011;71113;43.092;-89.268;2023-08-30T09:33:22;0.43;;;0.43;;
78368;SDS011;71113;43.092;-89.268;2023-08-30T09:35:48;0.38;;;0.30;;
78368;SDS011;71113;43.092;-89.268;2023-08-30T09:38:20;2.55;;;0.52;;
78368;SDS011;71113;43.092;-89.268;2023-08-30T09:40:46;0.38;;;0.32;;
78368;SDS011;71113;43.092;-89.268;2023-08-30T09:43:12;1.80;;;0.47;;
78368;SDS011;71113;43.092;-89.268;2023-08-30T09:45:40;0.43;;;0.43;;
78368;SDS011;71113;43.092;-89.268;2023-08-30T09:48:06;0.35;;;0.30;;
78368;SDS011;71113;43.092;-89.268;2023-08-30T09:50:33;0.50;;;0.50;;
78368;SDS011;71113;43.092;-89.268;2023-08-30T09:53:07;0.40;;;0.40;;
78368;SDS011;71113;43.092;-89.268;2023-08-30T09:55:37;0.10;;;0.10;;
78368;SDS011;71113;43.092;-89.268;2023-08-30T09:58:04;0.40;;;0.40;;
78368;SDS011;71113;43.092;-89.268;2023-08-30T10:00:32;0.38;;;0.30;;
78368;SDS011;71113;43.092;-89.268;2023-08-30T10:02:59;0.65;;;0.35;;
78368;SDS011;71113;43.092;-89.268;2023-08-30T10:05:25;0.98;;;0.30;;
78368;SDS011;71113;43.092;-89.268;2023-08-30T10:07:55;0.30;;;0.30;;
78368;SDS011;71113;43.092;-89.268;2023-08-30T10:10:22;0.40;;;0.40;;
78368;SDS011;71113;43.092;-89.268;2023-08-30T10:12:49;0.40;;;0.40;;
78368;SDS011;71113;43.092;-89.268;2023-08-30T10:15:15;0.52;;;0.40;;
78368;SDS011;71113;43.092;-89.268;2023-08-30T10:17:44;0.40;;;0.40;;
78368;SDS011;71113;43.092;-89.268;2023-08-30T10:20:11;0.38;;;0.30;;
78368;SDS011;71113;43.092;-89.268;2023-08-30T10:22:38;0.85;;;0.85;;
78368;SDS011;71113;43.092;-89.268;2023-08-30T10:25:06;0.30;;;0.30;;
78368;SDS011;71113;43.092;-89.268;2023-08-30T10:27:37;0.32;;;0.32;;
78368;SDS011;71113;43.092;-89.268;2023-08-30T10:30:07;0.50;;;0.50;;
78368;SDS011;71113;43.092;-89.268;2023-08-30T10:32:39;0.35;;;0.35;;
78368;SDS011;71113;43.092;-89.268;2023-08-30T10:35:06;0.43;;;0.43;;
78368;SDS011;71113;43.092;-89.268;2023-08-30T10:37:32;0.22;;;0.20;;
78368;SDS011;71113;43.092;-89.268;2023-08-30T10:40:01;0.22;;;0.22;;
78368;SDS011;71113;43.092;-89.268;2023-08-30T10:42:31;0.30;;;0.30;;
78368;SDS011;71113;43.092;-89.268;2023-08-30T10:45:06;0.32;;;0.32;;
78368;SDS011;71113;43.092;-89.268;2023-08-30T10:47:36;0.40;;;0.40;;
78368;SDS011;71113;43.092;-89.268;2023-08-30T10:50:07;0.28;;;0.28;;
78368;SDS011;71113;43.092;-89.268;2023-08-30T10:52:34;0.35;;;0.28;;
78368;SDS011;71113;43.092;-89.268;2023-08-30T10:55:07;0.30;;;0.30;;
78368;SDS011;71113;43.092;-89.268;2023-08-30T10:57:35;0.40;;;0.40;;
78368;SDS011;71113;43.092;-89.268;2023-08-30T11:00:05;0.68;;;0.38;;
78368;SDS011;71113;43.092;-89.268;2023-08-30T11:02:33;0.30;;;0.30;;
78368;SDS011;71113;43.092;-89.268;2023-08-30T11:05:00;0.52;;;0.30;;
78368;SDS011;71113;43.092;-89.268;2023-08-30T11:07:26;0.20;;;0.20;;
78368;SDS011;71113;43.092;-89.268;2023-08-30T11:09:52;0.50;;;0.50;;
78368;SDS011;71113;43.092;-89.268;2023-08-30T11:12:18;0.50;;;0.47;;
78368;SDS011;71113;43.092;-89.268;2023-08-30T11:14:47;2.35;;;1.17;;
78368;SDS011;71113;43.092;-89.268;2023-08-30T11:17:22;0.80;;;0.80;;
78368;SDS011;71113;43.092;-89.268;2023-08-30T11:19:49;2.38;;;0.35;;
78368;SDS011;71113;43.092;-89.268;2023-08-30T11:22:16;1.50;;;0.30;;
78368;SDS011;71113;43.092;-89.268;2023-08-30T11:24:43;1.08;;;0.43;;
78368;SDS011;71113;43.092;-89.268;2023-08-30T11:27:19;1.38;;;0.55;;
78368;SDS011;71113;43.092;-89.268;2023-08-30T11:29:52;0.65;;;0.52;;
78368;SDS011;71113;43.092;-89.268;2023-08-30T11:32:17;0.93;;;0.40;;
78368;SDS011;71113;43.092;-89.268;2023-08-30T11:34:54;0.70;;;0.52;;
78368;SDS011;71113;43.092;-89.268;2023-08-30T11:37:22;0.50;;;0.50;;
78368;SDS011;71113;43.092;-89.268;2023-08-30T11:39:51;0.40;;;0.40;;
78368;SDS011;71113;43.092;-89.268;2023-08-30T11:42:18;5.38;;;0.77;;
78368;SDS011;71113;43.092;-89.268;2023-08-30T11:44:45;1.17;;;0.70;;
78368;SDS011;71113;43.092;-89.268;2023-08-30T11:47:11;0.73;;;0.52;;
78368;SDS011;71113;43.092;-89.268;2023-08-30T11:49:42;1.92;;;0.55;;
78368;SDS011;71113;43.092;-89.268;2023-08-30T11:52:08;0.28;;;0.28;;
78368;SDS011;71113;43.092;-89.268;2023-08-30T11:54:34;2.22;;;0.70;;
78368;SDS011;71113;43.092;-89.268;2023-08-30T11:57:01;0.63;;;0.52;;
78368;SDS011;71113;43.092;-89.268;2023-08-30T11:59:27;0.93;;;0.45;;
78368;SDS011;71113;43.092;-89.268;2023-08-30T12:01:53;1.20;;;0.60;;
78368;SDS011;71113;43.092;-89.268;2023-08-30T12:04:19;0.63;;;0.57;;
78368;SDS011;71113;43.092;-89.268;2023-08-30T12:06:51;3.88;;;0.40;;
78368;SDS011;71113;43.092;-89.268;2023-08-30T12:09:20;0.73;;;0.40;;
78368;SDS011;71113;43.092;-89.268;2023-08-30T12:11:49;0.88;;;0.55;;
78368;SDS011;71113;43.092;-89.268;2023-08-30T12:14:15;1.30;;;0.50;;
78368;SDS011;71113;43.092;-89.268;2023-08-30T12:16:42;1.10;;;0.77;;
78368;SDS011;71113;43.092;-89.268;2023-08-30T12:19:11;0.77;;;0.43;;
78368;SDS011;71113;43.092;-89.268;2023-08-30T12:21:44;1.55;;;0.60;;
78368;SDS011;71113;43.092;-89.268;2023-08-30T12:24:13;2.60;;;0.73;;
78368;SDS011;71113;43.092;-89.268;2023-08-30T12:26:40;0.57;;;0.40;;
78368;SDS011;71113;43.092;-89.268;2023-08-30T12:29:06;0.93;;;0.45;;
78368;SDS011;71113;43.092;-89.268;2023-08-30T12:31:32;0.43;;;0.40;;
78368;SDS011;71113;43.092;-89.268;2023-08-30T12:33:59;0.40;;;0.40;;
78368;SDS011;71113;43.092;-89.268;2023-08-30T12:36:25;0.98;;;0.50;;
78368;SDS011;71113;43.092;-89.268;2023-08-30T12:38:51;1.08;;;0.60;;
78368;SDS011;71113;43.092;-89.268;2023-08-30T12:41:16;0.40;;;0.40;;
78368;SDS011;71113;43.092;-89.268;2023-08-30T12:43:43;1.30;;;0.32;;
78368;SDS011;71113;43.092;-89.268;2023-08-30T12:46:08;2.15;;;0.82;;
78368;SDS011;71113;43.092;-89.268;2023-08-30T12:48:34;0.73;;;0.52;;
78368;SDS011;71113;43.092;-89.268;2023-08-30T12:51:00;0.60;;;0.50;;
78368;SDS011;71113;43.092;-89.268;2023-08-30T12:53:28;1.25;;;0.55;;
78368;SDS011;71113;43.092;-89.268;2023-08-30T12:55:54;0.57;;;0.50;;
78368;SDS011;71113;43.092;-89.268;2023-08-30T12:58:20;0.50;;;0.40;;
78368;SDS011;71113;43.092;-89.268;2023-08-30T13:00:46;0.52;;;0.40;;
78368;SDS011;71113;43.092;-89.268;2023-08-30T13:03:12;0.60;;;0.45;;
78368;SDS011;71113;43.092;-89.268;2023-08-30T13:05:38;0.55;;;0.50;;
78368;SDS011;71113;43.092;-89.268;2023-08-30T13:08:04;0.40;;;0.40;;
78368;SDS011;71113;43.092;-89.268;2023-08-30T13:10:31;0.40;;;0.40;;
78368;SDS011;71113;43.092;-89.268;2023-08-30T13:12:57;0.47;;;0.47;;
78368;SDS011;71113;43.092;-89.268;2023-08-30T13:15:23;0.60;;;0.60;;
78368;SDS011;71113;43.092;-89.268;2023-08-30T13:17:49;0.65;;;0.40;;
78368;SDS011;71113;43.092;-89.268;2023-08-30T13:20:16;0.98;;;0.55;;
78368;SDS011;71113;43.092;-89.268;2023-08-30T13:22:42;1.75;;;0.40;;
78368;SDS011;71113;43.092;-89.268;2023-08-30T13:25:08;0.57;;;0.40;;
78368;SDS011;71113;43.092;-89.268;2023-08-30T13:27:34;1.77;;;0.70;;
78368;SDS011;71113;43.092;-89.268;2023-08-30T13:30:01;0.95;;;0.70;;
78368;SDS011;71113;43.092;-89.268;2023-08-30T13:32:27;0.70;;;0.50;;
78368;SDS011;71113;43.092;-89.268;2023-08-30T13:34:53;0.80;;;0.55;;
78368;SDS011;71113;43.092;-89.268;2023-08-30T13:37:19;0.60;;;0.55;;
78368;SDS011;71113;43.092;-89.268;2023-08-30T13:39:45;0.63;;;0.35;;
78368;SDS011;71113;43.092;-89.268;2023-08-30T13:42:11;0.68;;;0.40;;
78368;SDS011;71113;43.092;-89.268;2023-08-30T13:44:57;0.43;;;0.40;;
78368;SDS011;71113;43.092;-89.268;2023-08-30T13:47:23;0.47;;;0.40;;
78368;SDS011;71113;43.092;-89.268;2023-08-30T13:49:49;0.60;;;0.52;;
78368;SDS011;71113;43.092;-89.268;2023-08-30T13:52:23;0.90;;;0.65;;
78368;SDS011;71113;43.092;-89.268;2023-08-30T13:54:49;0.73;;;0.52;;
78368;SDS011;71113;43.092;-89.268;2023-08-30T13:57:17;0.52;;;0.50;;
78368;SDS011;71113;43.092;-89.268;2023-08-30T13:59:43;1.20;;;0.50;;
78368;SDS011;71113;43.092;-89.268;2023-08-30T14:02:08;0.32;;;0.32;;
78368;SDS011;71113;43.092;-89.268;2023-08-30T14:04:34;1.55;;;0.45;;
78368;SDS011;71113;43.092;-89.268;2023-08-30T14:07:09;0.30;;;0.30;;
78368;SDS011;71113;43.092;-89.268;2023-08-30T14:09:41;0.57;;;0.38;;
78368;SDS011;71113;43.092;-89.268;2023-08-30T14:12:07;0.40;;;0.40;;
78368;SDS011;71113;43.092;-89.268;2023-08-30T14:14:33;0.57;;;0.50;;
78368;SDS011;71113;43.092;-89.268;2023-08-30T14:16:59;0.52;;;0.40;;
78368;SDS011;71113;43.092;-89.268;2023-08-30T14:19:25;0.40;;;0.40;;
78368;SDS011;71113;43.092;-89.268;2023-08-30T14:21:51;0.45;;;0.40;;
78368;SDS011;71113;43.092;-89.268;2023-08-30T14:24:20;0.30;;;0.30;;
78368;SDS011;71113;43.092;-89.268;2023-08-30T14:26:46;0.32;;;0.32;;